Time;durP1;ratioP1;P1;durP2;ratioP2;P2;SDS_P1;SDS_P2;PMS_P1;PMS_P2;Temp;Humidity;BMP_temperature;BMP_pressure;BME280_temperature;BME280_humidity;BME280_pressure;Samples;Min_cycle;Max_cycle;Signal;HPM_P1;HPM_P2
2024/03/19 00:00:14;;;;;;;24.60;13.70;;;;;;;8.93;100.00;99036.56;5030803;28;20029;-77
2024/03/19 00:02:39;;;;;;;26.08;13.68;;;;;;;8.94;100.00;99043.63;5031866;28;20096;-76
2024/03/19 00:05:07;;;;;;;27.98;15.05;;;;;;;8.87;100.00;99037.28;5030553;28;20339;-77
2024/03/19 00:07:33;;;;;;;27.35;14.60;;;;;;;8.71;100.00;99021.31;5030516;28;20021;-77
2024/03/19 00:09:58;;;;;;;25.05;14.35;;;;;;;8.79;100.00;99037.41;5057537;28;20113;-77
2024/03/19 00:12:26;;;;;;;24.27;13.50;;;;;;;8.83;100.00;99045.94;5038412;28;20021;-78
2024/03/19 00:14:52;;;;;;;28.38;14.63;;;;;;;8.81;100.00;99037.22;5035949;28;20025;-79
2024/03/19 00:17:17;;;;;;;24.52;14.27;;;;;;;8.85;100.00;99055.53;5038459;28;20052;-79
2024/03/19 00:19:43;;;;;;;23.70;13.27;;;;;;;8.81;100.00;99042.63;5067267;28;20049;-78
2024/03/19 00:22:08;;;;;;;20.42;12.77;;;;;;;8.83;100.00;99045.94;5042356;28;20065;-78
2024/03/19 00:24:34;;;;;;;22.40;12.52;;;;;;;8.76;100.00;99038.59;5051092;28;20021;-79
2024/03/19 00:27:00;;;;;;;22.45;13.45;;;;;;;8.83;100.00;99041.41;5062857;28;20033;-78
2024/03/19 00:29:26;;;;;;;21.48;12.75;;;;;;;8.89;100.00;99051.44;5056057;28;20025;-78
2024/03/19 00:31:52;;;;;;;20.55;13.05;;;;;;;8.80;100.00;99035.53;5069111;28;20064;-77
2024/03/19 00:34:17;;;;;;;24.10;13.07;;;;;;;8.84;100.00;99055.72;5032910;28;20025;-78
2024/03/19 00:36:43;;;;;;;24.45;13.93;;;;;;;8.74;100.00;99042.50;5031753;28;20082;-77
2024/03/19 00:39:10;;;;;;;23.30;13.68;;;;;;;8.74;100.00;99026.31;5024385;28;20029;-78
2024/03/19 00:41:39;;;;;;;29.40;14.77;;;;;;;8.78;100.00;99035.72;5033397;28;20027;-78
2024/03/19 00:44:05;;;;;;;29.33;15.05;;;;;;;8.85;100.00;99044.72;5029289;28;20074;-77
2024/03/19 00:46:31;;;;;;;28.80;14.45;;;;;;;8.85;100.00;99038.50;5034929;28;20040;-78
2024/03/19 00:48:57;;;;;;;24.92;13.43;;;;;;;8.88;100.00;99044.38;5018116;28;20025;-77
2024/03/19 00:51:22;;;;;;;25.95;14.68;;;;;;;8.74;100.00;99029.84;5039107;28;20077;-78
2024/03/19 00:53:47;;;;;;;26.30;15.00;;;;;;;8.71;100.00;99053.66;5025603;28;20336;-77
2024/03/19 00:56:12;;;;;;;25.88;13.75;;;;;;;8.65;100.00;99038.25;5027481;28;20096;-77
2024/03/19 00:58:38;;;;;;;24.67;13.88;;;;;;;8.54;100.00;99026.88;5026348;28;20116;-78
2024/03/19 01:01:03;;;;;;;29.77;15.48;;;;;;;8.71;100.00;99041.03;5026180;28;20033;-77
2024/03/19 01:03:29;;;;;;;26.40;14.07;;;;;;;8.64;100.00;99034.69;5033617;28;20025;-78
2024/03/19 01:05:54;;;;;;;30.27;14.18;;;;;;;8.65;100.00;99033.69;5034443;28;20132;-78
2024/03/19 01:08:20;;;;;;;22.75;13.38;;;;;;;8.62;100.00;99033.19;5030313;28;20040;-77
2024/03/19 01:10:46;;;;;;;30.58;14.38;;;;;;;8.68;100.00;99049.47;5052883;28;20247;-77
2024/03/19 01:13:11;;;;;;;29.08;14.27;;;;;;;8.70;100.00;99046.63;5032741;28;20021;-77
2024/03/19 01:15:37;;;;;;;32.45;14.88;;;;;;;8.69;100.00;99043.06;5048631;28;20059;-77
2024/03/19 01:18:03;;;;;;;28.73;13.90;;;;;;;8.66;100.00;99038.03;5029199;28;20025;-78
2024/03/19 01:20:29;;;;;;;31.98;14.45;;;;;;;8.61;100.00;99021.56;5031779;28;20022;-77
2024/03/19 01:22:54;;;;;;;39.63;15.93;;;;;;;8.64;100.00;99028.47;5046891;28;20079;-77
2024/03/19 01:25:19;;;;;;;30.83;14.55;;;;;;;8.62;100.00;99023.25;5051294;28;20017;-77
2024/03/19 01:27:45;;;;;;;34.95;15.48;;;;;;;8.59;100.00;99022.78;5028818;28;20028;-77
2024/03/19 01:30:11;;;;;;;36.45;14.57;;;;;;;8.53;100.00;99014.41;5056133;28;20028;-77
2024/03/19 01:32:37;;;;;;;27.05;13.82;;;;;;;8.48;100.00;99019.50;5047381;28;20017;-78
2024/03/19 01:35:21;;;;;;;31.73;12.70;;;;;;;8.28;100.00;99015.66;5027201;28;20144;-77
2024/03/19 01:39:13;;;;;;;26.70;13.50;;;;;;;8.22;100.00;99021.78;5039998;28;20037;-78
2024/03/19 01:42:12;;;;;;;31.02;15.27;;;;;;;8.11;100.00;99023.88;4982280;28;20046;-78
2024/03/19 01:45:36;;;;;;;33.63;13.73;;;;;;;8.05;100.00;99011.16;4899148;29;20029;-78
2024/03/19 01:48:57;;;;;;;42.55;16.05;;;;;;;7.93;100.00;99009.91;4944885;29;20091;-78
2024/03/19 01:52:43;;;;;;;33.10;15.50;;;;;;;7.90;100.00;99010.25;4947437;29;20039;-78
2024/03/19 01:59:25;;;;;;;41.47;16.00;;;;;;;7.87;100.00;99013.31;4901108;29;20092;-79
2024/03/19 02:06:02;;;;;;;50.05;18.08;;;;;;;8.01;100.00;99009.00;4925959;29;20108;-78
2024/03/19 02:09:18;;;;;;;56.75;30.60;;;;;;;8.03;100.00;99018.56;4911242;29;20063;-78
2024/03/19 02:16:35;;;;;;;42.33;18.10;;;;;;;7.96;100.00;99014.09;4927492;29;20118;-78
2024/03/19 02:19:23;;;;;;;39.10;17.77;;;;;;;7.93;100.00;99012.59;5030845;23;20042;-58
2024/03/19 02:21:48;;;;;;;51.13;20.17;;;;;;;7.90;100.00;99002.19;5017810;28;20075;-58
2024/03/19 02:24:13;;;;;;;53.20;20.17;;;;;;;7.88;100.00;99001.53;5022455;28;20412;-58
2024/03/19 02:26:39;;;;;;;64.63;19.77;;;;;;;7.88;100.00;98998.81;5004760;28;20037;-58
2024/03/19 02:29:04;;;;;;;115.05;20.63;;;;;;;7.88;100.00;98996.13;5019229;28;20041;-58
2024/03/19 02:31:30;;;;;;;53.90;20.10;;;;;;;7.91;100.00;98995.75;5012962;28;20024;-57
2024/03/19 02:33:55;;;;;;;53.78;20.15;;;;;;;7.89;100.00;98993.28;5019382;28;20036;-58
2024/03/19 02:36:23;;;;;;;50.25;20.75;;;;;;;7.92;100.00;98986.69;5022140;28;20075;-64
2024/03/19 02:38:48;;;;;;;60.35;22.95;;;;;;;7.94;100.00;98999.94;5009880;28;20038;-65
2024/03/19 02:41:20;;;;;;;63.40;23.70;;;;;;;7.95;100.00;98993.56;5017177;28;20029;-65
2024/03/19 02:43:45;;;;;;;56.60;21.20;;;;;;;7.97;100.00;98997.75;5012872;28;20025;-64
2024/03/19 02:46:11;;;;;;;53.45;21.30;;;;;;;7.97;100.00;98992.38;5005933;28;20092;-64
2024/03/19 02:48:36;;;;;;;49.85;20.08;;;;;;;8.02;100.00;98994.53;5018658;28;20121;-64
2024/03/19 02:51:01;;;;;;;76.60;21.45;;;;;;;7.95;100.00;98994.41;5010478;28;20022;-65
2024/03/19 02:53:27;;;;;;;57.03;20.58;;;;;;;7.91;100.00;99003.84;5020770;28;20030;-65
2024/03/19 02:55:59;;;;;;;57.33;21.55;;;;;;;7.86;100.00;98990.13;5004894;28;20037;-65
2024/03/19 02:58:26;;;;;;;56.17;21.23;;;;;;;7.85;100.00;98989.25;5011519;28;20477;-65
2024/03/19 03:00:55;;;;;;;59.17;21.42;;;;;;;7.84;100.00;99001.06;5011374;28;20037;-64
2024/03/19 03:03:21;;;;;;;49.65;19.92;;;;;;;7.83;100.00;98998.53;5025443;28;20473;-65
2024/03/19 03:05:46;;;;;;;53.47;19.58;;;;;;;7.78;100.00;99007.19;5010628;28;20042;-64
2024/03/19 03:08:12;;;;;;;50.83;20.20;;;;;;;7.76;100.00;99005.69;5015038;28;20029;-64
2024/03/19 03:10:40;;;;;;;50.10;19.83;;;;;;;7.77;100.00;99005.47;5014621;28;20029;-65
2024/03/19 03:13:06;;;;;;;48.10;19.47;;;;;;;7.79;100.00;99005.31;5020524;28;20049;-65
2024/03/19 03:15:31;;;;;;;47.33;19.17;;;;;;;7.81;100.00;99003.28;5012993;28;20277;-64
2024/03/19 03:17:57;;;;;;;39.95;18.35;;;;;;;7.90;100.00;99010.25;5013057;28;20041;-64
2024/03/19 03:20:23;;;;;;;51.35;21.30;;;;;;;7.90;100.00;99004.88;5012366;28;20037;-65
2024/03/19 03:22:54;;;;;;;48.85;20.63;;;;;;;8.05;100.00;99007.63;5021810;28;20050;-64
2024/03/19 03:25:21;;;;;;;41.58;19.08;;;;;;;8.01;100.00;99012.53;5017669;28;20026;-65
2024/03/19 03:27:47;;;;;;;50.53;19.90;;;;;;;8.09;100.00;99014.31;5012163;28;20191;-65
2024/03/19 03:30:13;;;;;;;39.88;18.83;;;;;;;8.13;100.00;99023.72;5023649;28;20025;-64
2024/03/19 03:32:47;;;;;;;45.00;19.10;;;;;;;8.08;100.00;99029.63;5019110;28;20025;-65
2024/03/19 03:35:13;;;;;;;35.05;16.67;;;;;;;8.08;100.00;99023.41;5011052;28;20489;-64
2024/03/19 03:37:39;;;;;;;39.88;17.23;;;;;;;8.06;100.00;99026.28;5012740;28;20036;-65
2024/03/19 03:40:17;;;;;;;29.77;14.85;;;;;;;8.11;100.00;99025.75;5023442;28;20060;-65
2024/03/19 03:42:44;;;;;;;31.70;15.30;;;;;;;8.08;100.00;99026.94;5023003;28;20029;-65
2024/03/19 03:45:13;;;;;;;33.60;15.93;;;;;;;8.01;100.00;99015.22;5018613;28;20113;-64
2024/03/19 03:47:39;;;;;;;38.75;17.13;;;;;;;7.97;100.00;99019.31;5010955;28;20031;-62
2024/03/19 03:50:09;;;;;;;32.25;16.17;;;;;;;8.07;100.00;99027.16;5019980;28;20023;-64
2024/03/19 03:52:37;;;;;;;28.73;15.88;;;;;;;8.10;100.00;99026.78;5024528;28;20026;-64
2024/03/19 03:55:04;;;;;;;34.45;15.48;;;;;;;8.05;100.00;99034.56;5012247;28;20034;-66
2024/03/19 03:57:31;;;;;;;31.98;15.27;;;;;;;7.98;100.00;99039.81;5004641;28;20512;-57
2024/03/19 03:59:57;;;;;;;32.30;15.52;;;;;;;7.87;100.00;99034.88;5009731;28;20500;-57
2024/03/19 04:02:25;;;;;;;34.05;16.17;;;;;;;7.78;100.00;99028.72;5012112;28;20026;-56
2024/03/19 04:04:52;;;;;;;38.20;15.83;;;;;;;7.79;100.00;99034.94;5017537;28;20031;-57
2024/03/19 04:07:17;;;;;;;34.35;17.02;;;;;;;7.71;100.00;99030.44;5015303;28;20041;-57
2024/03/19 04:09:49;;;;;;;39.10;17.90;;;;;;;7.69;100.00;99032.47;5004204;28;20026;-57
2024/03/19 04:12:15;;;;;;;40.08;16.52;;;;;;;7.59;100.00;99031.88;5011974;28;20121;-57
2024/03/19 04:14:42;;;;;;;37.25;16.77;;;;;;;7.55;100.00;99036.78;5011245;28;20089;-64
2024/03/19 04:17:12;;;;;;;37.50;15.48;;;;;;;7.45;100.00;99041.56;5007995;28;20088;-58
2024/03/19 04:19:37;;;;;;;;;;;;;;;7.41;100.00;99051.00;5009516;28;20027;-57
2024/03/19 04:22:03;;;;;;;41.80;16.58;;;;;;;7.35;100.00;99046.31;5016743;28;19963;-60
2024/03/19 04:24:28;;;;;;;41.13;17.20;;;;;;;7.33;100.00;99043.78;5010297;28;20119;-58
2024/03/19 04:26:54;;;;;;;50.38;17.92;;;;;;;7.29;100.00;99039.81;5005090;28;20377;-58
2024/03/19 04:29:20;;;;;;;52.15;17.38;;;;;;;7.25;100.00;99050.06;5019754;28;20040;-58
2024/03/19 04:31:46;;;;;;;90.97;19.45;;;;;;;7.21;100.00;99054.13;5016283;28;20025;-58
2024/03/19 04:34:12;;;;;;;95.40;19.67;;;;;;;7.20;100.00;99057.84;5016579;28;20105;-58
2024/03/19 04:36:38;;;;;;;116.70;21.58;;;;;;;7.18;100.00;99057.19;5002950;28;20037;-58
2024/03/19 04:39:10;;;;;;;105.65;20.92;;;;;;;7.13;100.00;99059.56;5001660;28;20379;-58
2024/03/19 04:41:39;;;;;;;57.72;17.77;;;;;;;7.09;100.00;99060.91;5015888;28;20030;-58
2024/03/19 04:44:07;;;;;;;;;;;;;;;7.08;100.00;99061.94;5020792;28;20033;-57
2024/03/19 04:46:33;;;;;;;53.80;16.20;;;;;;;7.09;100.00;99055.53;5010357;28;20541;-57
2024/03/19 04:48:58;;;;;;;43.40;16.48;;;;;;;7.08;100.00;99056.56;5006002;28;20155;-58
2024/03/19 04:51:25;;;;;;;52.10;18.08;;;;;;;7.22;100.00;99063.03;5015320;28;20052;-58
2024/03/19 04:53:50;;;;;;;66.68;18.85;;;;;;;7.13;100.00;99050.66;5004526;28;20477;-58
2024/03/19 04:56:16;;;;;;;70.65;19.27;;;;;;;7.02;100.00;99041.09;5011390;28;20029;-58
2024/03/19 04:58:41;;;;;;;59.90;20.08;;;;;;;6.99;100.00;99039.59;5014047;28;20104;-58
2024/03/19 05:01:11;;;;;;;100.57;20.33;;;;;;;7.03;100.00;99042.78;5015904;28;20037;-58
2024/03/19 05:03:36;;;;;;;342.08;26.90;;;;;;;7.03;100.00;99040.94;5022697;28;20040;-58
2024/03/19 05:06:01;;;;;;;71.00;18.77;;;;;;;7.05;100.00;99043.44;5013015;28;20018;-57
2024/03/19 05:08:27;;;;;;;94.57;20.02;;;;;;;7.08;100.00;99039.56;5018379;28;20034;-58
2024/03/19 05:10:52;;;;;;;79.63;19.27;;;;;;;7.07;100.00;99038.72;5012377;28;20109;-58
2024/03/19 05:13:18;;;;;;;63.33;17.23;;;;;;;7.08;100.00;99044.97;5009254;28;20038;-58
2024/03/19 05:15:43;;;;;;;120.85;20.70;;;;;;;7.06;100.00;99036.22;5012902;28;20075;-58
2024/03/19 05:18:08;;;;;;;76.90;17.92;;;;;;;7.05;100.00;99042.59;5003616;28;20041;-63
2024/03/19 05:20:34;;;;;;;94.30;18.63;;;;;;;7.10;100.00;99042.91;5010345;28;20033;-63
2024/03/19 05:23:00;;;;;;;159.80;20.55;;;;;;;7.14;100.00;99044.25;5009389;28;20030;-64
2024/03/19 05:25:25;;;;;;;140.07;19.65;;;;;;;7.14;100.00;99044.25;5012412;28;20026;-64
2024/03/19 05:27:52;;;;;;;76.95;16.52;;;;;;;7.14;100.00;99045.06;5014729;28;20462;-63
2024/03/19 05:30:18;;;;;;;150.23;19.98;;;;;;;7.14;100.00;99039.69;5002150;28;20033;-64
2024/03/19 05:32:44;;;;;;;104.55;18.38;;;;;;;7.20;100.00;99049.78;5002318;28;20032;-64
2024/03/19 05:35:09;;;;;;;140.90;18.58;;;;;;;7.17;100.00;99049.28;5016000;28;20470;-64
2024/03/19 05:37:35;;;;;;;67.60;16.20;;;;;;;7.15;100.00;99046.78;5002960;28;20037;-64
2024/03/19 05:40:00;;;;;;;172.63;19.30;;;;;;;7.12;100.00;99052.47;5006887;28;20039;-64
2024/03/19 05:42:26;;;;;;;40.42;14.27;;;;;;;7.16;100.00;99056.50;5006179;28;20034;-64
2024/03/19 05:44:53;;;;;;;62.17;14.35;;;;;;;7.11;100.00;99066.97;5015340;28;20026;-64
2024/03/19 05:47:18;;;;;;;122.72;16.33;;;;;;;7.10;100.00;99059.91;5009085;28;20032;-64
2024/03/19 05:49:43;;;;;;;76.30;14.65;;;;;;;6.90;100.00;99023.69;5061212;22;20033;-79
2024/03/19 05:52:09;;;;;;;56.13;14.40;;;;;;;7.06;100.00;99057.75;5037727;28;20044;-80
2024/03/19 05:54:34;;;;;;;30.23;13.02;;;;;;;7.01;100.00;99042.09;5043210;28;20021;-79
2024/03/19 05:56:59;;;;;;;148.25;18.92;;;;;;;7.00;100.00;99059.28;5029460;28;20025;-78
2024/03/19 05:59:25;;;;;;;128.38;16.00;;;;;;;7.02;100.00;99068.00;5025837;28;20013;-79
2024/03/19 06:01:51;;;;;;;111.40;15.98;;;;;;;6.94;100.00;99063.50;5019362;28;20328;-79
2024/03/19 06:04:16;;;;;;;158.75;17.02;;;;;;;6.78;100.00;99040.16;5019870;28;20339;-78
2024/03/19 06:06:41;;;;;;;99.25;18.75;;;;;;;6.98;100.00;99062.13;5023074;28;20036;-79
2024/03/19 06:09:07;;;;;;;116.75;17.13;;;;;;;6.97;100.00;99056.94;5023189;28;20216;-77
2024/03/19 06:11:33;;;;;;;120.97;16.17;;;;;;;7.05;100.00;99054.22;5019779;28;20027;-77
2024/03/19 06:13:58;;;;;;;76.85;15.13;;;;;;;7.11;100.00;99050.81;5039423;28;20017;-78
2024/03/19 06:16:23;;;;;;;117.25;14.77;;;;;;;7.17;100.00;99060.88;5022990;28;20093;-78
2024/03/19 06:18:48;;;;;;;142.55;15.15;;;;;;;7.17;100.00;99060.88;5018465;28;20017;-78
2024/03/19 06:21:14;;;;;;;88.22;15.02;;;;;;;7.24;100.00;99059.16;5023987;28;20257;-79
2024/03/19 06:23:39;;;;;;;79.05;12.65;;;;;;;7.23;100.00;99041.34;5021722;28;20041;-77
2024/03/19 06:26:04;;;;;;;37.90;12.82;;;;;;;7.50;100.00;99070.66;5034776;28;20020;-78
2024/03/19 06:28:30;;;;;;;71.40;14.10;;;;;;;7.64;100.00;99048.34;5024877;28;20028;-73
2024/03/19 06:30:55;;;;;;;72.63;12.10;;;;;;;7.89;100.00;99065.16;5015884;28;20023;-80
2024/03/19 06:33:20;;;;;;;70.50;12.40;;;;;;;7.95;100.00;99064.44;5019691;28;20101;-77
2024/03/19 06:35:49;;;;;;;36.35;12.15;;;;;;;8.14;100.00;99052.31;5018590;28;20056;-78
2024/03/19 06:38:16;;;;;;;61.25;10.98;;;;;;;8.28;100.00;99069.59;5016744;28;20017;-70
2024/03/19 06:40:41;;;;;;;30.38;10.13;;;;;;;8.50;100.00;99074.09;5038283;28;20026;-71
2024/03/19 06:43:06;;;;;;;59.22;11.38;;;;;;;8.62;100.00;99066.41;5042086;28;20040;-77
2024/03/19 06:45:32;;;;;;;26.45;9.65;;;;;;;8.81;100.00;99054.25;5020274;28;21018;-77
2024/03/19 06:47:58;;;;;;;67.03;10.50;;;;;;;8.81;100.00;99067.72;5019026;28;20029;-78
2024/03/19 06:50:24;;;;;;;25.55;9.57;;;;;;;9.02;100.00;99058.88;5039991;28;20089;-77
2024/03/19 06:52:50;;;;;;;66.90;10.50;;;;;;;9.03;100.00;99059.72;5022143;28;20104;-78
2024/03/19 06:55:16;;;;;;;41.05;10.45;;;;;;;9.22;100.00;99056.44;5042534;28;20021;-78
2024/03/19 06:57:42;;;;;;;73.45;10.25;;;;;;;9.43;100.00;99071.84;5028694;23;20086;-56
2024/03/19 07:00:14;;;;;;;51.33;12.55;;;;;;;9.63;100.00;99064.00;5064741;28;20025;-55
2024/03/19 07:02:41;;;;;;;51.50;8.90;;;;;;;9.61;100.00;99055.22;5055596;28;20451;-54
2024/03/19 07:05:08;;;;;;;49.67;8.80;;;;;;;9.32;100.00;99050.75;5069216;28;20020;-55
2024/03/19 07:07:33;;;;;;;48.03;9.40;;;;;;;9.15;100.00;99066.31;5073904;28;20020;-55
2024/03/19 07:09:59;;;;;;;50.33;8.35;;;;;;;8.95;100.00;99069.56;5082903;28;20020;-55
2024/03/19 07:12:26;;;;;;;37.25;9.32;;;;;;;8.99;100.00;99062.78;5085410;28;20031;-56
2024/03/19 07:14:52;;;;;;;24.05;8.85;;;;;;;9.28;100.00;99066.50;5073465;28;20105;-57
2024/03/19 07:17:18;;;;;;;50.67;10.02;;;;;;;9.47;100.00;99062.34;5076436;28;20108;-57
2024/03/19 07:19:44;;;;;;;39.53;9.10;;;;;;;9.72;100.00;99062.84;5084091;28;20020;-56
2024/03/19 07:22:10;;;;;;;33.33;8.93;;;;;;;9.89;100.00;99071.53;5078477;28;20042;-57
2024/03/19 07:24:36;;;;;;;141.60;11.35;;;;;;;9.93;100.00;99056.63;5074052;28;20064;-54
2024/03/19 07:27:01;;;;;;;25.38;8.85;;;;;;;10.55;100.00;99063.19;5077274;28;20421;-54
2024/03/19 07:29:27;;;;;;;46.55;9.13;;;;;;;10.52;100.00;99055.47;5080359;28;20016;-54
2024/03/19 07:31:54;;;;;;;35.35;9.23;;;;;;;11.03;100.00;99055.19;5079878;28;20027;-54
2024/03/19 07:34:19;;;;;;;44.00;8.15;;;;;;;11.39;100.00;99044.09;5060611;28;20376;-54
2024/03/19 07:36:46;;;;;;;20.70;7.10;;;;;;;11.65;100.00;99047.09;5075977;28;20021;-54
2024/03/19 07:39:12;;;;;;;11.88;7.47;;;;;;;12.05;100.00;99048.91;5072013;28;20531;-54
2024/03/19 07:41:41;;;;;;;16.60;8.13;;;;;;;11.88;100.00;99036.75;5065994;28;20119;-54
2024/03/19 07:44:07;;;;;;;23.30;8.25;;;;;;;12.17;100.00;99050.97;5078597;28;20466;-54
2024/03/19 07:46:33;;;;;;;44.53;8.77;;;;;;;12.13;100.00;99044.28;5073566;28;20487;-54
2024/03/19 07:49:00;;;;;;;13.32;7.03;;;;;;;12.74;100.00;99041.34;5077320;28;20020;-54
2024/03/19 07:51:29;;;;;;;14.40;8.02;;;;;;;13.59;100.00;99042.13;5076016;28;20024;-54
2024/03/19 07:53:55;;;;;;;14.90;7.38;;;;;;;13.62;100.00;99046.28;5075166;28;20103;-53
2024/03/19 07:56:20;;;;;;;10.70;7.75;;;;;;;14.40;100.00;99043.25;5071316;28;20119;-53
2024/03/19 07:58:47;;;;;;;14.10;7.38;;;;;;;14.75;100.00;99047.38;5079957;28;20016;-53
2024/03/19 08:01:13;;;;;;;14.30;7.43;;;;;;;14.87;100.00;99045.59;5073178;28;20040;-54
2024/03/19 08:03:39;;;;;;;12.63;7.30;;;;;;;14.57;100.00;99050.91;5083760;28;20036;-54
2024/03/19 08:06:04;;;;;;;13.95;7.90;;;;;;;14.67;100.00;99057.53;5081701;28;20016;-54
2024/03/19 08:08:30;;;;;;;12.68;7.60;;;;;;;14.98;100.00;99057.63;5082187;28;20161;-55
2024/03/19 08:10:56;;;;;;;13.30;8.43;;;;;;;13.76;100.00;99052.50;5072664;28;20084;-55
2024/03/19 08:13:25;;;;;;;13.43;7.63;;;;;;;14.33;100.00;99053.38;5074095;28;20088;-57
2024/03/19 08:15:51;;;;;;;13.40;8.15;;;;;;;14.14;100.00;99052.47;5072216;28;20032;-58
2024/03/19 08:18:17;;;;;;;12.57;8.23;;;;;;;14.50;100.00;99061.81;5058777;28;20035;-53
2024/03/19 08:20:43;;;;;;;12.20;7.78;;;;;;;16.56;100.00;99044.81;5063216;28;20024;-55
2024/03/19 08:23:09;;;;;;;11.63;8.13;;;;;;;17.59;100.00;99059.66;5062360;28;20147;-53
2024/03/19 08:25:35;;;;;;;10.50;7.38;;;;;;;19.17;100.00;99061.56;5068000;28;20032;-56
2024/03/19 08:28:02;;;;;;;8.63;6.40;;;;;;;21.29;100.00;99058.72;5072512;28;20028;-54
2024/03/19 08:30:27;;;;;;;7.78;5.78;;;;;;;24.20;90.55;99054.19;5065599;28;20155;-54
2024/03/19 08:32:53;;;;;;;6.70;5.25;;;;;;;21.91;86.88;99065.31;5072239;28;20115;-55
2024/03/19 08:35:19;;;;;;;9.10;5.82;;;;;;;22.89;80.68;99064.31;5077130;28;20037;-56
2024/03/19 08:37:46;;;;;;;6.60;5.30;;;;;;;22.23;82.72;99067.91;5070391;28;20029;-53
2024/03/19 08:40:12;;;;;;;7.80;5.85;;;;;;;20.32;100.00;99066.22;5072049;28;20034;-54
2024/03/19 08:42:38;;;;;;;9.50;5.82;;;;;;;19.65;100.00;99061.94;5069011;28;20108;-54
2024/03/19 08:45:04;;;;;;;8.88;5.63;;;;;;;20.70;100.00;99067.97;5077805;28;20066;-55
2024/03/19 08:47:31;;;;;;;6.88;4.90;;;;;;;21.14;100.00;99067.72;5058691;28;20032;-54
2024/03/19 08:49:57;;;;;;;5.70;4.28;;;;;;;22.82;89.05;99061.03;5074982;28;20027;-55
2024/03/19 08:52:24;;;;;;;7.18;4.55;;;;;;;23.05;80.76;99067.09;5084181;28;20034;-56
2024/03/19 08:54:49;;;;;;;7.22;4.47;;;;;;;23.84;77.97;99066.31;5063478;28;20120;-53
2024/03/19 08:57:15;;;;;;;8.93;4.90;;;;;;;21.77;86.32;99061.41;5033633;28;1148255;-53
2024/03/19 08:59:40;;;;;;;6.10;4.90;;;;;;;22.44;87.02;99057.72;5073615;28;20434;-53
2024/03/19 09:02:07;;;;;;;5.88;4.38;;;;;;;22.48;82.16;99064.34;5078160;28;20028;-53
2024/03/19 09:04:34;;;;;;;5.97;4.45;;;;;;;21.89;81.71;99062.00;5063050;28;20113;-53
2024/03/19 09:07:01;;;;;;;6.28;4.10;;;;;;;22.05;83.79;99052.66;5057535;28;20027;-53
2024/03/19 09:09:27;;;;;;;5.50;4.40;;;;;;;20.91;87.36;99068.94;5071190;28;20028;-56
2024/03/19 09:11:53;;;;;;;6.15;4.30;;;;;;;19.58;100.00;99072.28;5070815;28;20042;-55
2024/03/19 09:14:18;;;;;;;6.05;3.92;;;;;;;19.24;100.00;99062.22;5073264;28;20027;-53
2024/03/19 09:16:44;;;;;;;5.20;4.05;;;;;;;19.26;100.00;99067.47;5066777;28;20039;-53
2024/03/19 09:19:09;;;;;;;6.20;4.22;;;;;;;18.26;100.00;99067.28;5077994;28;20028;-56
2024/03/19 09:21:35;;;;;;;6.20;4.43;;;;;;;18.95;100.00;99069.78;5069648;28;20092;-55
2024/03/19 09:24:02;;;;;;;5.72;4.20;;;;;;;19.48;100.00;99068.31;5074795;28;20492;-55
2024/03/19 09:26:28;;;;;;;6.35;3.70;;;;;;;21.03;100.00;99068.72;5072837;28;20024;-55
2024/03/19 09:28:57;;;;;;;5.60;3.60;;;;;;;22.63;100.00;99071.78;5070843;28;20056;-55
2024/03/19 09:31:22;;;;;;;5.57;3.35;;;;;;;22.93;91.94;99072.88;5072269;28;20538;-55
2024/03/19 09:33:48;;;;;;;4.10;2.65;;;;;;;23.37;86.39;99064.81;5072367;28;20119;-53
2024/03/19 09:36:13;;;;;;;6.25;3.22;;;;;;;22.00;84.71;99074.69;5076818;28;20036;-53
2024/03/19 09:38:38;;;;;;;5.22;3.33;;;;;;;20.99;91.47;99075.88;5075399;28;20519;-55
2024/03/19 09:41:05;;;;;;;4.70;3.10;;;;;;;20.66;95.47;99074.25;5054902;28;20029;-55
2024/03/19 09:43:35;;;;;;;4.78;2.95;;;;;;;20.93;100.00;99074.16;5074055;28;20098;-54
2024/03/19 09:46:02;;;;;;;4.68;2.60;;;;;;;20.93;99.66;99069.53;5106041;22;20049;-54
2024/03/19 09:48:28;;;;;;;3.67;2.60;;;;;;;20.28;100.00;99071.44;5036925;28;20354;-52
2024/03/19 09:50:54;;;;;;;3.10;2.22;;;;;;;19.87;100.00;99071.00;5029419;28;20083;-49
2024/03/19 09:53:24;;;;;;;4.50;3.05;;;;;;;19.30;100.00;99065.88;5028219;28;20473;-49
2024/03/19 09:55:52;;;;;;;3.90;2.50;;;;;;;19.55;100.00;99068.13;5038877;28;20024;-49
2024/03/19 09:58:20;;;;;;;3.72;2.85;;;;;;;19.80;100.00;99075.03;5048176;28;20376;-49
2024/03/19 10:00:46;;;;;;;3.90;2.70;;;;;;;20.24;100.00;99070.28;5043803;28;20032;-50
2024/03/19 10:03:12;;;;;;;3.70;2.33;;;;;;;21.61;95.63;99072.41;5049535;28;20036;-50
2024/03/19 10:05:38;;;;;;;3.20;2.30;;;;;;;22.64;89.44;99065.19;5049064;28;20447;-50
2024/03/19 10:08:04;;;;;;;3.08;2.20;;;;;;;23.79;85.98;99068.28;5051052;28;20028;-50
2024/03/19 10:10:30;;;;;;;4.10;2.42;;;;;;;24.91;75.08;99063.88;5049616;28;20017;-50
2024/03/19 10:12:56;;;;;;;3.97;2.50;;;;;;;25.80;67.11;99061.50;5041696;28;20029;-50
2024/03/19 10:15:24;;;;;;;4.47;2.30;;;;;;;26.34;60.19;99061.34;5046416;28;20063;-50
2024/03/19 10:17:51;;;;;;;3.15;2.20;;;;;;;27.07;59.10;99063.44;5042528;28;20428;-50
2024/03/19 10:20:17;;;;;;;3.63;2.30;;;;;;;26.80;59.51;99058.66;5046055;28;20040;-50
2024/03/19 10:22:47;;;;;;;3.53;2.08;;;;;;;25.70;60.55;99072.75;5047082;28;20029;-50
2024/03/19 10:25:16;;;;;;;3.20;1.98;;;;;;;24.58;62.52;99069.16;5046020;28;20415;-50
2024/03/19 10:27:46;;;;;;;2.78;2.05;;;;;;;25.44;64.45;99060.28;5046143;28;20025;-53
2024/03/19 10:30:17;;;;;;;3.78;2.08;;;;;;;25.08;63.31;99058.72;5055570;28;20449;-52
2024/03/19 10:32:44;;;;;;;3.45;2.00;;;;;;;25.00;62.06;99059.38;5044402;28;20036;-51
2024/03/19 10:35:21;;;;;;;5.35;2.22;;;;;;;25.32;58.44;99057.94;5050887;28;20032;-51
2024/03/19 10:37:51;;;;;;;2.63;2.20;;;;;;;27.07;58.12;99035.69;5046213;28;20025;-53
2024/03/19 10:40:19;;;;;;;2.75;2.08;;;;;;;25.72;57.57;99053.84;5046274;28;20028;-52
2024/03/19 10:42:51;;;;;;;3.40;1.77;;;;;;;26.39;59.03;99042.66;5040746;28;20033;-53
2024/03/19 10:45:25;;;;;;;2.95;1.80;;;;;;;28.80;56.37;99043.31;5046372;28;20111;-54
2024/03/19 10:47:52;;;;;;;3.78;1.67;;;;;;;30.71;49.65;99037.44;5041205;28;20025;-51
2024/03/19 10:50:19;;;;;;;1.55;1.42;;;;;;;30.95;45.99;99034.09;5045781;28;20104;-51
2024/03/19 10:53:05;;;;;;;3.40;1.80;;;;;;;29.56;47.74;99036.81;5047784;28;20020;-51
2024/03/19 10:55:32;;;;;;;4.30;2.10;;;;;;;28.71;51.43;99037.66;5038862;28;20028;-51
2024/03/19 10:58:02;;;;;;;2.58;1.45;;;;;;;29.80;51.02;99028.84;5044768;28;20485;-52
2024/03/19 11:00:28;;;;;;;2.53;1.27;;;;;;;30.23;49.22;99025.28;5044929;28;20043;-51
2024/03/19 11:02:58;;;;;;;3.35;1.73;;;;;;;29.48;49.39;99021.69;5050289;28;20029;-51
2024/03/19 11:05:25;;;;;;;4.95;2.17;;;;;;;27.80;51.35;99035.06;5051400;28;20031;-51
2024/03/19 11:07:51;;;;;;;2.47;1.85;;;;;;;27.65;53.76;99039.00;5043273;28;20029;-51
2024/03/19 11:10:30;;;;;;;2.97;1.83;;;;;;;27.06;53.39;99033.19;5046535;28;20025;-51
2024/03/19 11:12:57;;;;;;;1.85;1.48;;;;;;;27.15;55.24;99033.31;5050491;28;20095;-51
2024/03/19 11:15:23;;;;;;;3.67;1.30;;;;;;;25.88;53.51;99037.88;5047402;28;20025;-51
2024/03/19 11:17:49;;;;;;;1.25;0.95;;;;;;;25.53;54.13;99033.59;5043567;28;20361;-51
2024/03/19 11:20:17;;;;;;;2.47;1.45;;;;;;;24.93;56.63;99039.50;5048247;28;20031;-51
2024/03/19 11:22:45;;;;;;;2.23;1.57;;;;;;;25.10;56.59;99041.84;5047721;28;20427;-52
2024/03/19 11:25:15;;;;;;;3.70;1.63;;;;;;;25.11;56.05;99024.91;5040465;28;20695;-51
2024/03/19 11:27:48;;;;;;;1.50;1.15;;;;;;;25.40;57.34;99026.84;5047462;28;20021;-52
2024/03/19 11:30:14;;;;;;;5.47;1.40;;;;;;;25.33;55.57;99035.47;5046864;28;20085;-51
2024/03/19 11:32:40;;;;;;;2.03;1.40;;;;;;;26.00;56.23;99018.84;5045392;28;20024;-51
2024/03/19 11:35:26;;;;;;;3.58;1.92;;;;;;;25.25;58.14;99027.00;5039972;28;20084;-51
2024/03/19 11:37:52;;;;;;;2.67;1.88;;;;;;;25.54;59.48;99027.78;5046981;28;20079;-51